This is the latest recevied weather packets stored in our database for station/object DL9CN-10. If no packets are shown the sender has not sent any weather packets the latest 1 day(s).
| Time | Temp. | Humidity | Pressure | Rain* | Wind** | Luminosity | Snow |
|---|---|---|---|---|---|---|---|
| 1777758772 | 25° C | 35% | 1017 hPa | - | - | - | - |
| 1777757872 | 25.56° C | 35% | 1016.9 hPa | - | - | - | - |
| 1777756972 | 26.11° C | 35% | 1016.9 hPa | - | - | - | - |
| 1777756072 | 26.11° C | 34% | 1017 hPa | - | - | - | - |
| 1777755172 | 26.67° C | 34% | 1017 hPa | - | - | - | - |
| 1777754272 | 26.67° C | 34% | 1017 hPa | - | - | - | - |
| 1777753371 | 27.22° C | 34% | 1017 hPa | - | - | - | - |
| 1777752471 | 27.22° C | 34% | 1017 hPa | - | - | - | - |
| 1777751571 | 27.78° C | 34% | 1016.8 hPa | - | - | - | - |
| 1777750670 | 27.78° C | 34% | 1016.8 hPa | - | - | - | - |
| 1777749770 | 28.33° C | 34% | 1016.8 hPa | - | - | - | - |
| 1777748870 | 28.33° C | 34% | 1016.7 hPa | - | - | - | - |
| 1777747970 | 28.89° C | 34% | 1016.6 hPa | - | - | - | - |
| 1777747070 | 28.89° C | 34% | 1016.5 hPa | - | - | - | - |
| 1777746169 | 28.89° C | 34% | 1016.5 hPa | - | - | - | - |
| 1777745269 | 29.44° C | 34% | 1016.4 hPa | - | - | - | - |
| 1777744369 | 29.44° C | 34% | 1016.5 hPa | - | - | - | - |
| 1777743469 | 29.44° C | 35% | 1016.5 hPa | - | - | - | - |
| 1777742568 | 29.44° C | 36% | 1016.6 hPa | - | - | - | - |
| 1777741668 | 29.44° C | 36% | 1016.6 hPa | - | - | - | - |
| 1777740768 | 29.44° C | 37% | 1016.7 hPa | - | - | - | - |
| 1777739867 | 28.89° C | 37% | 1016.9 hPa | - | - | - | - |
| 1777738970 | 28.89° C | 38% | 1017.1 hPa | - | - | - | - |
| 1777738069 | 28.89° C | 38% | 1017.3 hPa | - | - | - | - |
| 1777737169 | 28.33° C | 38% | 1017.4 hPa | - | - | - | - |
* Rain since midnight (hover to see other rain measurements)
** Current wind speed in m/s (hover to see current wind gust speed)